Time;durP1;ratioP1;P1;durP2;ratioP2;P2;SDS_P1;SDS_P2;PMS_P1;PMS_P2;Temp;Humidity;BMP_temperature;BMP_pressure;BME280_temperature;BME280_humidity;BME280_pressure;Samples;Min_cycle;Max_cycle;Signal;HPM_P1;HPM_P2
2022/03/22 07:31:50;;;;;;;;;22.00;17.25;;;;;17.59;51.18;102655.63;5108561;27;45956;-74
2022/03/22 07:34:17;;;;;;;;;8.50;5.50;;;;;17.80;51.41;102653.59;5094385;27;45469;-73
2022/03/22 07:36:46;;;;;;;;;19.00;13.25;;;;;18.03;51.29;102660.38;5100233;27;45359;-77
2022/03/22 07:39:12;;;;;;;;;21.75;17.25;;;;;18.28;51.21;102667.09;5105260;27;45480;-75
2022/03/22 07:41:43;;;;;;;;;20.50;17.75;;;;;18.54;51.10;102661.19;5102203;27;48255;-74
2022/03/22 07:44:12;;;;;;;;;23.75;18.25;;;;;18.80;50.37;102670.44;5099295;27;45708;-74
2022/03/22 07:46:37;;;;;;;;;18.50;16.25;;;;;19.06;50.18;102662.69;5105879;27;45532;-75
2022/03/22 07:54:39;;;;;;;;;19.00;16.00;;;;;19.80;48.06;102664.50;5090148;27;45536;-75
2022/03/22 07:57:07;;;;;;;;;20.50;18.75;;;;;20.00;47.91;102665.09;5093238;27;45434;-77
2022/03/22 07:59:32;;;;;;;;;20.75;18.75;;;;;20.18;47.77;102657.66;5091872;27;45751;-78
2022/03/22 08:01:57;;;;;;;;;22.75;17.50;;;;;20.36;47.31;102665.50;5096534;27;45428;-76
2022/03/22 08:04:23;;;;;;;;;18.25;15.50;;;;;20.52;46.90;102663.53;5087031;27;45439;-74
2022/03/22 08:06:48;;;;;;;;;20.00;16.25;;;;;20.69;46.48;102661.53;5086420;27;45871;-79
2022/03/22 08:09:13;;;;;;;;;16.00;15.25;;;;;20.84;46.92;102658.78;5090060;27;45511;-76
2022/03/22 08:11:42;;;;;;;;;24.25;17.50;;;;;20.98;46.07;102663.25;5095427;27;45478;-73
2022/03/22 08:14:08;;;;;;;;;19.25;16.25;;;;;21.12;45.97;102659.59;5094604;27;45490;-72
2022/03/22 08:16:33;;;;;;;;;20.00;17.75;;;;;21.19;45.57;102648.28;5091927;27;45925;-71
2022/03/22 08:18:59;;;;;;;;;23.25;17.75;;;;;21.34;45.32;102669.81;5075518;27;45384;-74
2022/03/22 08:21:24;;;;;;;;;16.25;15.50;;;;;21.44;45.53;102662.78;5091059;27;45463;-73
2022/03/22 08:23:49;;;;;;;;;20.75;17.75;;;;;21.55;45.08;102671.97;5079295;27;51904;-73
2022/03/22 08:26:15;;;;;;;;;18.00;18.00;;;;;21.63;45.21;102661.47;5089219;27;45717;-73
2022/03/22 08:28:42;;;;;;;;;15.75;15.25;;;;;21.75;44.60;102670.59;5091331;27;45787;-77
2022/03/22 08:31:08;;;;;;;;;21.25;18.50;;;;;21.78;45.25;102659.53;5093390;27;46440;-73
2022/03/22 08:33:33;;;;;;;;;16.75;14.50;;;;;21.89;44.99;102668.69;5103422;27;45429;-78
2022/03/22 08:35:59;;;;;;;;;15.75;13.00;;;;;21.93;44.75;102662.09;5107428;27;45434;-80
2022/03/22 08:38:24;;;;;;;;;18.75;18.75;;;;;22.03;44.60;102673.97;5105744;27;45435;-83
2022/03/22 08:40:50;;;;;;;;;18.25;16.50;;;;;22.13;44.50;102678.72;5104374;27;47084;-84
2022/03/22 08:43:16;;;;;;;;;16.67;15.33;;;;;22.14;44.73;102665.09;5094331;27;46127;-78
2022/03/22 08:45:42;;;;;;;;;19.00;17.25;;;;;22.23;43.81;102679.75;5090651;27;45460;-83
2022/03/22 08:48:11;;;;;;;;;21.75;18.50;;;;;22.25;44.40;102675.13;5087037;27;45500;-83
2022/03/22 08:50:42;;;;;;;;;16.33;16.00;;;;;22.32;43.82;102670.97;5090633;27;45577;-83
2022/03/22 08:53:08;;;;;;;;;17.50;16.50;;;;;22.37;44.02;102679.59;5085172;27;45532;-81
2022/03/22 08:55:34;;;;;;;;;16.33;15.33;;;;;22.42;43.77;102676.56;5091491;27;45517;-83
2022/03/22 08:58:05;;;;;;;;;17.75;16.00;;;;;22.41;43.54;102669.44;5093088;27;45436;-81
2022/03/22 09:00:32;;;;;;;;;25.25;16.00;;;;;22.49;43.75;102669.72;5091548;27;45440;-82
2022/03/22 09:02:58;;;;;;;;;17.67;15.33;;;;;22.54;43.51;102679.34;5089205;27;45435;-82
2022/03/22 09:08:07;;;;;;;;;18.67;16.00;;;;;22.61;43.41;102681.47;5088212;27;45482;-85
2022/03/22 09:10:34;;;;;;;;;14.67;14.67;;;;;22.68;43.30;102681.88;5095373;27;46465;-86
2022/03/22 09:12:59;;;;;;;;;18.67;17.00;;;;;22.66;43.63;102677.56;5081081;27;45334;-87
2022/03/22 09:15:27;;;;;;;;;13.00;12.00;;;;;22.76;43.78;102686.72;5087851;27;45547;-85
2022/03/22 09:17:56;;;;;;;;;15.33;15.33;;;;;22.80;43.30;102681.97;5091551;27;45780;-79
2022/03/22 09:20:23;;;;;;;;;14.00;14.00;;;;;22.83;43.55;102679.88;5088593;27;47332;-77
2022/03/22 09:22:51;;;;;;;;;15.33;15.33;;;;;22.86;43.70;102676.06;5089813;27;45938;-77
2022/03/22 09:25:17;;;;;;;;;17.33;14.00;;;;;22.88;43.10;102677.69;5093149;27;45693;-83
2022/03/22 09:27:44;;;;;;;;;14.67;14.67;;;;;22.90;43.67;102678.41;5084911;27;45522;-78
2022/03/22 09:30:11;;;;;;;;;19.67;18.33;;;;;22.91;43.56;102676.56;5090074;27;46225;-79
2022/03/22 09:32:39;;;;;;;;;17.50;16.00;;;;;22.96;42.95;102678.91;5084491;27;45447;-83
2022/03/22 09:35:10;;;;;;;;;17.67;14.00;;;;;22.98;43.57;102685.97;5083620;27;45813;-84
2022/03/22 09:37:38;;;;;;;;;13.00;12.33;;;;;23.03;43.13;102680.19;5082535;27;45502;-80
2022/03/22 09:40:05;;;;;;;;;19.33;16.67;;;;;23.03;43.15;102675.66;5094252;27;45445;-81
2022/03/22 09:42:31;;;;;;;;;13.67;13.33;;;;;23.09;43.72;102673.44;5081488;27;45422;-78
2022/03/22 09:45:00;;;;;;;;;18.00;15.33;;;;;23.09;43.54;102676.16;5082299;27;45462;-78
2022/03/22 09:47:26;;;;;;;;;13.00;13.00;;;;;23.06;43.59;102669.13;5080218;27;45641;-78
2022/03/22 09:49:52;;;;;;;;;12.00;12.00;;;;;23.10;43.52;102670.59;5082303;27;45987;-80
2022/03/22 09:52:18;;;;;;;;;17.00;15.67;;;;;23.19;43.36;102673.56;5091884;27;45627;-75
2022/03/22 09:54:44;;;;;;;;;20.00;14.67;;;;;23.21;43.27;102677.88;5091786;27;45689;-78
2022/03/22 09:57:10;;;;;;;;;13.33;13.33;;;;;23.23;42.93;102669.66;5092310;27;45415;-78
2022/03/22 09:59:36;;;;;;;;;18.67;15.00;;;;;23.25;43.08;102659.53;5090883;27;45521;-76
2022/03/22 10:02:03;;;;;;;;;21.00;18.00;;;;;23.28;40.51;102662.91;5086148;27;45529;-78
2022/03/22 10:04:43;;;;;;;;;23.75;21.75;;;;;23.24;38.97;102658.69;5080106;27;45517;-77
2022/03/22 10:07:20;;;;;;;;;26.00;22.25;;;;;23.20;36.48;102659.91;5091126;27;45392;-76
2022/03/22 10:10:00;;;;;;;;;22.00;21.67;;;;;23.14;34.82;102672.09;5085233;27;47257;-75
2022/03/22 10:12:32;;;;;;;;;25.25;19.75;;;;;23.09;33.71;102659.91;5087767;27;45560;-74
2022/03/22 10:15:15;;;;;;;;;28.00;24.25;;;;;23.06;33.63;102665.53;5089351;27;45454;-75
2022/03/22 10:17:41;;;;;;;;;35.75;25.75;;;;;22.99;33.14;102659.72;5089892;27;45586;-77
2022/03/22 10:20:08;;;;;;;;;26.00;21.50;;;;;22.91;32.71;102652.22;5087058;27;46085;-75
2022/03/22 10:22:35;;;;;;;;;24.00;22.75;;;;;22.91;32.70;102646.78;5091315;27;45822;-77
2022/03/22 10:25:03;;;;;;;;;30.25;25.75;;;;;22.80;32.74;102636.78;5091818;27;45494;-77
2022/03/22 10:27:34;;;;;;;;;25.75;24.25;;;;;22.88;32.51;102661.44;5088998;27;45406;-77
2022/03/22 10:30:03;;;;;;;;;23.25;21.75;;;;;22.80;31.66;102641.34;5086497;27;45775;-77
2022/03/22 10:32:51;;;;;;;;;27.00;22.67;;;;;22.84;32.35;102651.81;5091134;27;45908;-78
2022/03/22 10:35:25;;;;;;;;;22.50;21.00;;;;;22.83;31.72;102654.63;5089304;27;45536;-78
2022/03/22 10:37:53;;;;;;;;;19.25;14.75;;;;;22.81;31.35;102646.63;5088797;27;45477;-77
2022/03/22 10:40:36;;;;;;;;;19.75;19.75;;;;;22.79;31.66;102645.88;5091359;27;45432;-77
2022/03/22 10:43:06;;;;;;;;;21.75;21.75;;;;;22.70;31.85;102633.06;5091295;27;46176;-77
2022/03/22 10:45:46;;;;;;;;;24.33;20.67;;;;;22.74;32.18;102642.69;5089552;27;45591;-78
2022/03/22 10:48:19;;;;;;;;;19.75;19.75;;;;;22.72;31.72;102636.53;5086224;27;45399;-79
2022/03/22 10:50:47;;;;;;;;;30.75;24.75;;;;;22.70;31.22;102635.75;5081993;27;47071;-79
2022/03/22 10:53:17;;;;;;;;;27.50;21.25;;;;;22.71;31.00;102629.38;5088475;27;45630;-78
2022/03/22 10:55:44;;;;;;;;;26.50;20.75;;;;;22.71;30.92;102629.38;5089461;27;45515;-79
2022/03/22 10:58:13;;;;;;;;;25.50;19.50;;;;;22.59;31.01;102606.81;5076578;27;45317;-78
2022/03/22 11:00:43;;;;;;;;;22.67;18.33;;;;;22.66;30.87;102628.84;5093169;27;45909;-78
2022/03/22 11:03:08;;;;;;;;;22.00;19.25;;;;;22.66;30.92;102620.72;5086522;27;45450;-78
2022/03/22 11:05:33;;;;;;;;;23.75;20.50;;;;;22.58;30.88;102600.56;5088362;27;45989;-79
2022/03/22 11:07:59;;;;;;;;;22.00;20.75;;;;;22.73;30.60;102619.31;5105294;27;45544;-78
2022/03/22 11:10:29;;;;;;;;;18.33;15.33;;;;;22.74;30.24;102616.47;5082271;27;46291;-79
2022/03/22 11:12:57;;;;;;;;;23.00;23.00;;;;;22.63;30.37;102594.78;5093538;27;46375;-80
2022/03/22 11:15:24;;;;;;;;;20.75;15.75;;;;;22.72;29.66;102617.59;5089141;27;45577;-76
2022/03/22 11:17:51;;;;;;;;;22.25;16.50;;;;;22.70;29.01;102612.28;5084950;27;45520;-75
2022/03/22 11:20:17;;;;;;;;;19.00;18.50;;;;;22.70;29.39;102604.16;5084631;27;46420;-76
2022/03/22 11:22:48;;;;;;;;;20.50;19.25;;;;;22.70;29.65;102609.56;5095857;27;45961;-75
2022/03/22 11:25:18;;;;;;;;;20.25;18.50;;;;;22.70;28.79;102606.88;5090686;27;45394;-75
2022/03/22 11:27:54;;;;;;;;;16.00;15.25;;;;;22.65;28.76;102592.81;5081605;27;45541;-75
2022/03/22 11:30:19;;;;;;;;;18.25;17.25;;;;;22.63;28.29;102590.22;5090980;27;45586;-76
2022/03/22 11:35:30;;;;;;;;;19.75;16.75;;;;;22.69;27.82;102590.75;5087524;27;45769;-75
2022/03/22 11:38:00;;;;;;;;;19.67;17.00;;;;;22.69;27.36;102586.19;5087279;27;45425;-75
2022/03/22 11:43:13;;;;;;;;;25.75;17.50;;;;;22.69;27.71;102580.78;5083360;27;45555;-76
2022/03/22 11:45:46;;;;;;;;;19.25;18.75;;;;;22.71;28.07;102576.09;5092834;27;45526;-75
2022/03/22 11:48:12;;;;;;;;;14.00;14.00;;;;;22.71;28.42;102570.69;5082282;27;45577;-74
2022/03/22 11:50:37;;;;;;;;;16.00;16.00;;;;;22.67;27.81;102554.78;5087227;27;45493;-74
2022/03/22 11:53:03;;;;;;;;;17.50;17.00;;;;;22.79;27.39;102566.50;5088437;27;45511;-75
2022/03/22 11:55:28;;;;;;;;;19.00;19.00;;;;;22.80;27.39;102569.09;5090028;27;45403;-75
2022/03/22 11:58:08;;;;;;;;;20.00;17.75;;;;;22.80;27.13;102562.84;5092249;27;45448;-73
2022/03/22 12:00:51;;;;;;;;;20.25;18.25;;;;;22.81;27.84;102564.56;5089371;27;45323;-75
2022/03/22 12:03:19;;;;;;;;;17.00;16.00;;;;;22.82;27.49;102563.56;5091587;27;45430;-75
2022/03/22 12:05:45;;;;;;;;;20.75;16.00;;;;;22.86;27.47;102559.66;5088986;27;47168;-82
2022/03/22 12:08:14;;;;;;;;;20.33;20.00;;;;;22.86;27.69;102552.41;5080140;27;45625;-81
2022/03/22 12:10:44;;;;;;;;;20.00;20.00;;;;;22.92;28.43;102559.16;5089146;27;45947;-80
2022/03/22 12:13:10;;;;;;;;;20.75;19.00;;;;;22.87;28.50;102542.41;5089165;27;45647;-80
2022/03/22 12:15:35;;;;;;;;;16.00;16.00;;;;;23.02;28.34;102556.59;5091640;27;45536;-80
2022/03/22 12:18:01;;;;;;;;;17.00;16.33;;;;;22.96;28.54;102533.56;5094029;27;45372;-80
2022/03/22 12:20:26;;;;;;;;;19.25;17.75;;;;;23.09;28.78;102551.56;5089771;27;46061;-80
2022/03/22 12:22:58;;;;;;;;;16.00;16.00;;;;;23.14;28.59;102547.50;5085706;27;48841;-80
2022/03/22 12:25:26;;;;;;;;;14.75;14.00;;;;;23.21;28.89;102541.59;5093995;27;45519;-80
2022/03/22 12:28:01;;;;;;;;;15.00;15.00;;;;;23.25;28.86;102535.81;5093369;27;45779;-80
2022/03/22 12:30:29;;;;;;;;;17.25;16.75;;;;;23.29;28.82;102520.16;5092219;27;45462;-80
2022/03/22 12:32:58;;;;;;;;;17.50;17.50;;;;;23.31;29.08;102515.50;5089334;27;45505;-75
2022/03/22 12:35:24;;;;;;;;;19.25;19.25;;;;;23.35;26.33;102513.41;5090031;27;45460;-75
2022/03/22 12:37:52;;;;;;;;;18.75;18.75;;;;;23.27;25.60;102500.47;5092023;27;45309;-75
2022/03/22 12:40:18;;;;;;;;;21.75;17.50;;;;;23.29;25.14;102506.59;5095062;27;47237;-82
2022/03/22 12:42:45;;;;;;;;;18.75;17.50;;;;;23.27;24.78;102500.47;5089700;27;45781;-82
2022/03/22 12:45:12;;;;;;;;;19.50;19.25;;;;;23.28;25.47;102494.94;5093980;27;45491;-85
2022/03/22 12:47:39;;;;;;;;;18.00;18.00;;;;;23.26;25.36;102493.31;5087838;27;45454;-75
2022/03/22 12:50:09;;;;;;;;;21.00;18.67;;;;;23.30;25.03;102492.94;5091620;27;46384;-76
2022/03/22 12:52:35;;;;;;;;;20.50;20.50;;;;;23.28;24.54;102486.81;5093435;27;45659;-76
2022/03/22 12:55:01;;;;;;;;;19.33;19.33;;;;;23.22;24.31;102483.72;5089766;27;45600;-83
2022/03/22 12:57:26;;;;;;;;;20.67;18.67;;;;;23.27;24.82;102492.34;5094676;27;45486;-78
2022/03/22 12:59:52;;;;;;;;;22.25;21.50;;;;;23.29;24.94;102485.81;5087193;27;46896;-79
2022/03/22 13:02:19;;;;;;;;;22.25;20.75;;;;;23.25;24.88;102470.78;5087057;27;45454;-81
2022/03/22 13:04:47;;;;;;;;;21.50;20.25;;;;;23.28;25.51;102472.38;5093717;27;45529;-80
2022/03/22 13:07:19;;;;;;;;;22.50;20.50;;;;;23.29;25.65;102468.69;5094478;27;45563;-80
2022/03/22 13:12:33;;;;;;;;;22.00;20.00;;;;;23.39;26.14;102468.84;5088528;27;45462;-75
2022/03/22 13:15:08;;;;;;;;;22.50;18.50;;;;;23.42;26.61;102460.47;5092159;27;45564;-79
2022/03/22 13:17:43;;;;;;;;;20.75;20.75;;;;;23.45;26.57;102464.78;5081092;27;45896;-80
2022/03/22 13:20:17;;;;;;;;;19.00;17.67;;;;;23.44;26.31;102450.34;5082060;27;47042;-81
2022/03/22 13:22:54;;;;;;;;;20.00;19.75;;;;;23.47;26.54;102457.34;5084736;27;45372;-80
2022/03/22 13:25:35;;;;;;;;;17.33;17.33;;;;;23.37;26.27;102425.59;5094686;27;45484;-84
2022/03/22 13:28:17;;;;;;;;;22.00;18.33;;;;;23.49;26.02;102439.09;5091519;27;45572;-81
2022/03/22 13:30:45;;;;;;;;;20.67;20.00;;;;;23.48;26.17;102430.13;5093044;27;46189;-83
2022/03/22 13:33:18;;;;;;;;;19.00;19.00;;;;;23.42;26.30;102422.53;5090427;27;45930;-82
2022/03/22 13:35:58;;;;;;;;;19.50;18.25;;;;;23.57;26.10;102438.50;5088064;27;46026;-84
2022/03/22 13:38:25;;;;;;;;;20.75;17.00;;;;;23.58;25.92;102432.94;5088148;27;45527;-83
2022/03/22 13:40:57;;;;;;;;;18.00;18.00;;;;;23.57;25.90;102427.66;5091053;27;46238;-85
2022/03/22 13:43:25;;;;;;;;;22.00;21.00;;;;;23.58;25.84;102426.66;5093250;27;45414;-84
2022/03/22 13:45:53;;;;;;;;;22.25;19.75;;;;;23.61;26.31;102431.81;5086969;27;45394;-80
2022/03/22 13:48:19;;;;;;;;;17.67;17.67;;;;;23.59;26.08;102425.66;5090539;27;45641;-87
2022/03/22 13:50:51;;;;;;;;;20.00;18.67;;;;;23.63;25.72;102422.56;5092135;27;47051;-83
2022/03/22 13:53:22;;;;;;;;;23.25;23.00;;;;;23.63;26.02;102425.28;5089763;27;45406;-85
2022/03/22 13:55:51;;;;;;;;;20.75;19.50;;;;;23.64;26.09;102409.88;5093906;27;45838;-86
2022/03/22 13:58:22;;;;;;;;;19.75;19.75;;;;;23.71;26.26;102413.81;5090434;27;45419;-74
2022/03/22 14:00:49;;;;;;;;;22.25;21.50;;;;;23.73;25.94;102413.66;5083694;27;46272;-84
2022/03/22 14:03:15;;;;;;;;;17.50;16.50;;;;;23.73;25.90;102403.69;5089070;27;45719;-78
2022/03/22 14:05:42;;;;;;;;;18.33;17.00;;;;;23.74;26.12;102408.09;5085930;27;45436;-82
2022/03/22 14:08:09;;;;;;;;;20.50;20.50;;;;;23.76;25.80;102407.97;5082553;27;45426;-79
2022/03/22 14:10:35;;;;;;;;;21.67;19.00;;;;;23.78;26.08;102406.88;5076247;27;46168;-80
2022/03/22 14:13:02;;;;;;;;;21.50;21.00;;;;;23.80;25.77;102404.88;5092154;27;45705;-80
2022/03/22 14:15:28;;;;;;;;;21.75;21.75;;;;;23.80;25.69;102404.03;5088443;27;45507;-79
2022/03/22 14:17:53;;;;;;;;;26.00;21.75;;;;;23.79;25.60;102399.59;5080908;27;45508;-79
2022/03/22 14:20:21;;;;;;;;;25.00;19.25;;;;;23.78;25.40;102392.44;5077948;27;45604;-80
2022/03/22 14:22:53;;;;;;;;;21.33;20.00;;;;;23.72;25.50;102393.84;5078388;27;46543;-80
2022/03/22 14:25:19;;;;;;;;;22.00;19.75;;;;;23.75;25.66;102396.25;5092424;27;45351;-80
2022/03/22 14:27:46;;;;;;;;;21.25;19.25;;;;;23.79;25.48;102395.03;5086433;27;45448;-80
2022/03/22 14:30:15;;;;;;;;;21.00;20.25;;;;;23.82;25.38;102397.47;5091095;27;45449;-74
2022/03/22 14:32:45;;;;;;;;;20.50;20.50;;;;;23.84;25.91;102400.06;5086027;27;45374;-77
2022/03/22 14:37:57;;;;;;;;;22.00;20.75;;;;;23.78;24.70;102398.72;5088611;27;45512;-77
2022/03/22 14:40:23;;;;;;;;;20.00;19.00;;;;;23.75;25.07;102390.84;5089510;27;46356;-78
2022/03/22 14:42:50;;;;;;;;;18.33;17.00;;;;;23.75;25.00;102390.00;5090981;27;45437;-78
2022/03/22 14:45:16;;;;;;;;;23.00;19.67;;;;;23.76;25.13;102389.88;5091025;27;46441;-76
2022/03/22 14:47:41;;;;;;;;;20.33;19.00;;;;;23.75;24.69;102390.84;5089521;27;45857;-74
2022/03/22 14:50:07;;;;;;;;;20.67;20.67;;;;;23.76;25.21;102389.00;5085588;27;46170;-78
2022/03/22 14:55:18;;;;;;;;;18.33;17.33;;;;;23.75;24.86;102380.00;5084954;27;45390;-78
2022/03/22 15:00:28;;;;;;;;;22.67;19.00;;;;;23.76;24.86;102375.44;5088272;27;45618;-80
2022/03/22 15:02:53;;;;;;;;;21.00;19.00;;;;;23.81;25.31;102373.22;5085429;27;45508;-78
2022/03/22 15:05:34;;;;;;;;;19.67;19.00;;;;;23.85;25.47;102376.50;5090143;27;52249;-74
2022/03/22 15:08:03;;;;;;;;;17.33;17.33;;;;;23.85;25.65;102381.94;5084613;27;45585;-74
2022/03/22 15:10:28;;;;;;;;;22.25;19.50;;;;;23.82;25.14;102364.94;5076892;27;46070;-74
2022/03/22 15:12:54;;;;;;;;;18.00;16.50;;;;;23.79;25.03;102367.06;5074865;27;45516;-74
2022/03/22 15:15:19;;;;;;;;;20.50;20.25;;;;;23.75;25.26;102363.75;5085351;27;45449;-78
2022/03/22 15:17:44;;;;;;;;;18.75;16.75;;;;;23.77;25.69;102371.75;5082404;27;45419;-75
2022/03/22 15:20:10;;;;;;;;;18.67;17.33;;;;;23.74;25.64;102351.19;5082910;27;45534;-76
2022/03/22 15:22:37;;;;;;;;;22.00;20.50;;;;;23.70;25.80;102355.13;5090538;27;45501;-81
2022/03/22 15:25:03;;;;;;;;;20.50;19.00;;;;;23.73;25.49;102352.19;5089809;27;45410;-75
2022/03/22 15:27:29;;;;;;;;;22.50;19.25;;;;;23.72;26.01;102363.16;5084137;27;46379;-74
2022/03/22 15:29:55;;;;;;;;;19.50;17.50;;;;;23.71;26.28;102348.75;5075391;27;45976;-74
2022/03/22 15:32:20;;;;;;;;;17.00;17.00;;;;;23.65;25.91;102339.28;5080537;27;46468;-73
2022/03/22 15:34:46;;;;;;;;;19.25;19.25;;;;;23.68;25.94;102346.28;5088013;27;45609;-73
2022/03/22 15:37:11;;;;;;;;;18.00;18.00;;;;;23.65;25.65;102344.69;5088200;27;45301;-73
2022/03/22 15:39:36;;;;;;;;;22.25;18.25;;;;;23.66;25.98;102359.09;5086121;27;46272;-73
2022/03/22 15:42:06;;;;;;;;;20.75;19.50;;;;;23.65;25.90;102350.13;5087963;27;47850;-74
2022/03/22 15:44:32;;;;;;;;;23.25;20.75;;;;;23.64;25.69;102345.69;5086948;27;45363;-74
2022/03/22 15:46:58;;;;;;;;;20.25;18.75;;;;;23.63;25.63;102343.94;5092254;27;45480;-74
2022/03/22 15:49:23;;;;;;;;;18.50;18.00;;;;;23.59;25.85;102336.22;5084133;27;46160;-73
2022/03/22 15:51:49;;;;;;;;;20.00;18.50;;;;;23.61;26.06;102332.41;5081139;27;45411;-87
2022/03/22 15:54:14;;;;;;;;;22.75;20.50;;;;;23.57;25.99;102325.50;5090529;27;45395;-82
2022/03/22 15:56:40;;;;;;;;;22.75;18.75;;;;;23.62;26.58;102339.53;5085076;27;45747;-78
2022/03/22 15:59:07;;;;;;;;;22.25;21.50;;;;;23.65;26.80;102341.13;5082663;27;46100;-78
2022/03/22 16:01:33;;;;;;;;;19.50;18.50;;;;;23.60;26.76;102329.81;5080911;27;45498;-78
2022/03/22 16:03:58;;;;;;;;;20.75;18.00;;;;;23.67;27.28;102334.56;5079022;27;45523;-78
2022/03/22 16:06:24;;;;;;;;;16.33;16.33;;;;;23.58;27.24;102315.53;5091051;27;45413;-78
2022/03/22 16:08:49;;;;;;;;;18.25;16.50;;;;;23.68;27.31;102333.59;5083338;27;46187;-77
2022/03/22 16:11:15;;;;;;;;;17.00;17.00;;;;;23.71;27.65;102339.75;5085770;27;45352;-78
2022/03/22 16:13:40;;;;;;;;;21.75;18.00;;;;;23.74;27.67;102342.22;5092889;27;45932;-78
2022/03/22 16:16:08;;;;;;;;;20.00;19.00;;;;;23.75;27.91;102341.22;5080738;27;45469;-79
2022/03/22 16:18:35;;;;;;;;;18.33;18.33;;;;;23.77;27.94;102336.50;5092726;27;46002;-83
2022/03/22 16:21:02;;;;;;;;;20.75;19.50;;;;;23.76;27.99;102327.53;5079773;27;45443;-87
2022/03/22 16:23:28;;;;;;;;;20.33;18.67;;;;;23.79;27.38;102335.38;5090591;27;45480;-76
2022/03/22 16:25:55;;;;;;;;;21.50;19.75;;;;;23.80;26.48;102347.09;5092673;27;45625;-76
2022/03/22 16:28:21;;;;;;;;;17.00;16.33;;;;;23.72;26.50;102345.03;5084340;27;47010;-75
2022/03/22 16:30:47;;;;;;;;;19.00;19.00;;;;;23.74;26.69;102344.91;5082532;27;45614;-72
2022/03/22 16:41:24;;;;;;;;;22.00;17.75;;;;;23.58;26.36;102334.50;5085657;27;45623;-72
2022/03/22 16:43:49;;;;;;;;;21.50;20.25;;;;;23.58;25.97;102334.50;5079185;27;45627;-72
2022/03/22 16:46:15;;;;;;;;;25.50;20.00;;;;;23.57;26.28;102343.66;5092688;27;45835;-74
2022/03/22 16:48:41;;;;;;;;;21.50;18.75;;;;;23.41;26.17;102320.53;5080322;27;45501;-75
2022/03/22 16:51:07;;;;;;;;;20.75;19.25;;;;;23.52;26.50;102339.47;5078314;27;45574;-75
2022/03/22 16:53:32;;;;;;;;;25.75;20.50;;;;;23.53;26.41;102351.16;5084213;27;45422;-73
2022/03/22 16:56:01;;;;;;;;;20.00;19.25;;;;;23.50;26.09;102349.56;5077739;27;45400;-72
2022/03/22 16:58:28;;;;;;;;;25.50;19.75;;;;;23.47;26.49;102352.56;5091965;27;46350;-76
2022/03/22 17:00:53;;;;;;;;;18.25;18.25;;;;;23.53;27.09;102353.84;5089361;27;45749;-76
2022/03/22 17:03:19;;;;;;;;;20.25;19.75;;;;;23.52;26.61;102355.72;5076958;27;45450;-75
2022/03/22 17:05:45;;;;;;;;;19.75;19.00;;;;;23.54;27.43;102356.44;5081102;27;45531;-75
2022/03/22 17:08:11;;;;;;;;;21.50;20.25;;;;;23.51;27.36;102350.44;5083508;27;45771;-77
2022/03/22 17:10:37;;;;;;;;;19.00;19.00;;;;;23.52;27.11;102352.16;5081579;27;45434;-75
2022/03/22 17:13:03;;;;;;;;;18.00;18.00;;;;;23.57;27.58;102354.47;5079448;27;45475;-78
2022/03/22 17:15:29;;;;;;;;;21.75;20.00;;;;;23.57;27.86;102354.47;5079322;27;45462;-77
2022/03/22 17:17:56;;;;;;;;;19.25;18.00;;;;;23.59;27.75;102361.50;5078847;27;45458;-76
2022/03/22 17:20:23;;;;;;;;;19.00;18.25;;;;;23.60;27.97;102359.63;5079190;27;45533;-79
2022/03/22 17:22:50;;;;;;;;;19.75;16.75;;;;;23.54;28.25;102352.91;5086807;27;45574;-83
2022/03/22 17:25:16;;;;;;;;;25.33;19.67;;;;;23.61;28.71;102364.06;5090061;27;45526;-79
2022/03/22 17:27:42;;;;;;;;;20.00;18.33;;;;;23.58;28.61;102361.63;5090721;27;46938;-81
2022/03/22 17:30:08;;;;;;;;;19.33;19.00;;;;;23.49;28.95;102347.84;5087536;27;45493;-77
2022/03/22 17:32:33;;;;;;;;;21.25;19.75;;;;;23.63;28.94;102367.50;5087331;27;45529;-78
2022/03/22 17:35:00;;;;;;;;;21.00;20.50;;;;;23.64;29.08;102369.22;5080096;27;45494;-80
2022/03/22 17:37:25;;;;;;;;;22.33;18.67;;;;;23.65;29.10;102370.94;5075378;27;46557;-78
2022/03/22 17:39:52;;;;;;;;;18.00;18.00;;;;;23.66;29.09;102369.94;5079713;27;45389;-80
2022/03/22 17:42:17;;;;;;;;;16.00;15.33;;;;;23.60;29.51;102360.50;5085730;27;45520;-79
2022/03/22 17:44:43;;;;;;;;;15.00;15.00;;;;;23.67;29.31;102368.97;5082543;27;45322;-77
2022/03/22 17:47:09;;;;;;;;;18.00;18.00;;;;;23.67;29.12;102372.53;5081848;27;46502;-77
2022/03/22 17:49:35;;;;;;;;;22.25;17.50;;;;;23.68;29.32;102374.28;5080104;27;45470;-77
2022/03/22 17:52:00;;;;;;;;;18.00;17.67;;;;;23.68;29.19;102368.84;5077429;27;45421;-77
2022/03/22 17:54:25;;;;;;;;;19.67;17.67;;;;;23.67;29.54;102377.09;5084274;27;45725;-77
2022/03/22 17:56:51;;;;;;;;;19.67;18.00;;;;;23.67;29.47;102375.22;5088458;27;53410;-77
2022/03/22 17:59:16;;;;;;;;;20.67;17.67;;;;;23.71;29.54;102385.81;5085059;27;45677;-77
2022/03/22 18:01:42;;;;;;;;;19.00;17.00;;;;;23.68;29.29;102382.41;5087091;27;45421;-77
2022/03/22 18:04:07;;;;;;;;;16.33;14.67;;;;;23.68;29.37;102386.94;5082303;27;45376;-77
2022/03/22 18:06:33;;;;;;;;;17.50;17.50;;;;;23.67;29.44;102391.50;5088488;27;45481;-77
2022/03/22 18:08:58;;;;;;;;;19.00;16.00;;;;;23.63;29.71;102381.06;5087802;27;45449;-77
2022/03/22 18:11:42;;;;;;;;;20.50;19.50;;;;;23.63;29.56;102386.47;5085713;27;45490;-77
2022/03/22 18:14:17;;;;;;;;;19.00;17.75;;;;;23.64;29.53;102393.63;5088318;27;45756;-77
2022/03/22 18:16:46;;;;;;;;;21.25;19.25;;;;;23.61;29.44;102396.56;5087068;27;46053;-76
2022/03/22 18:19:15;;;;;;;;;18.33;18.33;;;;;23.60;29.24;102389.44;5083181;27;45371;-77
2022/03/22 18:21:40;;;;;;;;;18.75;18.00;;;;;23.61;29.23;102391.16;5080996;27;45659;-77
2022/03/22 18:24:07;;;;;;;;;17.75;17.25;;;;;23.59;29.83;102399.44;5078478;27;45529;-77
2022/03/22 18:26:33;;;;;;;;;19.50;19.00;;;;;23.59;29.62;102399.44;5076041;27;47128;-76
2022/03/22 18:28:58;;;;;;;;;18.67;16.00;;;;;23.55;29.39;102398.81;5092543;27;45501;-77
2022/03/22 18:31:26;;;;;;;;;19.00;17.00;;;;;23.57;29.54;102404.09;5079191;27;45554;-77
2022/03/22 18:33:52;;;;;;;;;20.25;18.75;;;;;23.53;29.72;102405.34;5076507;27;45625;-76
2022/03/22 18:36:17;;;;;;;;;22.50;19.25;;;;;23.51;29.76;102402.75;5083444;27;47212;-77
2022/03/22 18:38:44;;;;;;;;;19.50;19.00;;;;;23.51;29.97;102405.47;5079814;27;46242;-76
2022/03/22 18:41:10;;;;;;;;;19.00;18.00;;;;;23.52;29.94;102406.34;5076254;27;45794;-79
2022/03/22 18:43:36;;;;;;;;;19.25;15.50;;;;;23.51;29.70;102407.34;5087293;27;45388;-79
2022/03/22 18:46:01;;;;;;;;;22.75;22.50;;;;;23.50;29.62;102403.75;5076240;27;45517;-75
2022/03/22 18:48:26;;;;;;;;;34.50;26.75;;;;;23.47;29.51;102400.47;5069965;27;45510;-75
2022/03/22 18:50:52;;;;;;;;;29.00;26.00;;;;;23.44;29.53;102401.56;5075837;27;45848;-75
2022/03/22 18:53:17;;;;;;;;;28.75;25.00;;;;;23.36;29.55;102407.63;5089366;27;45635;-75
2022/03/22 18:55:42;;;;;;;;;27.50;26.50;;;;;23.24;29.25;102398.63;5078690;27;45543;-74
2022/03/22 18:58:08;;;;;;;;;27.25;23.00;;;;;23.30;29.98;102413.53;5078709;27;45617;-74
2022/03/22 19:00:34;;;;;;;;;25.50;23.75;;;;;23.25;29.67;102411.19;5088127;27;45559;-75
2022/03/22 19:03:00;;;;;;;;;29.75;23.75;;;;;23.20;29.89;102409.84;5077120;27;45536;-74
2022/03/22 19:05:27;;;;;;;;;26.25;25.25;;;;;23.20;30.22;102415.25;5080305;27;46144;-74
2022/03/22 19:07:52;;;;;;;;;24.25;21.00;;;;;23.19;30.15;102421.66;5079242;27;45825;-75
2022/03/22 19:10:18;;;;;;;;;22.75;22.25;;;;;23.12;30.06;102418.59;5085894;27;45836;-74
2022/03/22 19:12:44;;;;;;;;;28.00;25.50;;;;;23.15;30.45;102426.47;5083460;27;45557;-75
2022/03/22 19:15:09;;;;;;;;;25.75;23.50;;;;;23.09;30.31;102418.88;5084365;27;45913;-75